Terminal Aerodrome Forecast
Issued by NWS Cleveland, OH

Home | Current Version | Previous Version | Text Only | Print | Product List | Glossary On
Versions: 1 2 3 4 5 6 7 8 9 10 11 12 13 14 15 16 17 18 19 20 21 22 23 24 25 26 27 28 29
000
FTUS41 KCLE 222351 AAB
TAFCLE
TAF AMD
KCLE 222351Z 2300/2406 21012KT P6SM SCT050 BKN200
     FM230700 20012KT P6SM OVC035
      TEMPO 2307/2309 5SM -SHRA OVC018
     FM230900 20012KT 5SM -SHRA BKN018 OVC035
     FM231200 20012KT 5SM -SHRA VCTS BKN015CB OVC025
     FM231800 22012KT 6SM -SHRA VCTS OVC025CB
     FM232300 27005KT P6SM BKN025 OVC035=

USA.gov is the U.S. government's official web portal to all federal, state and local government web resources and services.